sensor_id;sensor_type;location;lat;lon;timestamp;P1;durP1;ratioP1;P2;durP2;ratioP2
27921;SDS011;15261;50.356;10.340;2022-09-13T00:00:42;8.32;;;7.60;;
27921;SDS011;15261;50.356;10.340;2022-09-13T00:03:08;7.50;;;6.80;;
27921;SDS011;15261;50.356;10.340;2022-09-13T00:05:36;8.65;;;7.80;;
27921;SDS011;15261;50.356;10.340;2022-09-13T00:08:02;10.77;;;6.93;;
27921;SDS011;15261;50.356;10.340;2022-09-13T00:10:28;7.75;;;7.05;;
27921;SDS011;15261;50.356;10.340;2022-09-13T00:12:54;8.35;;;6.93;;
27921;SDS011;15261;50.356;10.340;2022-09-13T00:15:19;9.48;;;6.97;;
27921;SDS011;15261;50.356;10.340;2022-09-13T00:17:45;9.27;;;6.78;;
27921;SDS011;15261;50.356;10.340;2022-09-13T00:20:11;8.38;;;7.57;;
27921;SDS011;15261;50.356;10.340;2022-09-13T00:22:37;7.85;;;7.15;;
27921;SDS011;15261;50.356;10.340;2022-09-13T00:25:03;9.30;;;8.40;;
27921;SDS011;15261;50.356;10.340;2022-09-13T00:27:33;11.10;;;8.10;;
27921;SDS011;15261;50.356;10.340;2022-09-13T00:30:00;8.93;;;7.82;;
27921;SDS011;15261;50.356;10.340;2022-09-13T00:32:29;8.38;;;7.68;;
27921;SDS011;15261;50.356;10.340;2022-09-13T00:34:55;8.85;;;8.05;;
27921;SDS011;15261;50.356;10.340;2022-09-13T00:37:20;8.60;;;7.80;;
27921;SDS011;15261;50.356;10.340;2022-09-13T00:39:46;9.68;;;7.63;;
27921;SDS011;15261;50.356;10.340;2022-09-13T00:42:12;8.48;;;7.63;;
27921;SDS011;15261;50.356;10.340;2022-09-13T00:44:46;12.40;;;7.57;;
27921;SDS011;15261;50.356;10.340;2022-09-13T00:52:44;10.10;;;7.60;;
27921;SDS011;15261;50.356;10.340;2022-09-13T00:55:23;9.00;;;7.43;;
27921;SDS011;15261;50.356;10.340;2022-09-13T00:58:01;8.30;;;7.50;;
27921;SDS011;15261;50.356;10.340;2022-09-13T01:00:32;8.73;;;7.82;;
27921;SDS011;15261;50.356;10.340;2022-09-13T01:02:59;8.93;;;7.10;;
27921;SDS011;15261;50.356;10.340;2022-09-13T01:05:32;8.82;;;7.65;;
27921;SDS011;15261;50.356;10.340;2022-09-13T01:08:02;7.90;;;7.00;;
27921;SDS011;15261;50.356;10.340;2022-09-13T01:10:44;8.65;;;7.32;;
27921;SDS011;15261;50.356;10.340;2022-09-13T01:13:15;7.38;;;6.78;;
27921;SDS011;15261;50.356;10.340;2022-09-13T01:15:43;8.45;;;7.40;;
27921;SDS011;15261;50.356;10.340;2022-09-13T01:18:10;7.80;;;7.07;;
27921;SDS011;15261;50.356;10.340;2022-09-13T01:23:55;7.90;;;7.10;;
27921;SDS011;15261;50.356;10.340;2022-09-13T01:44:19;7.82;;;7.03;;
27921;SDS011;15261;50.356;10.340;2022-09-13T01:50:27;7.95;;;7.10;;
27921;SDS011;15261;50.356;10.340;2022-09-13T01:52:55;8.50;;;7.22;;
27921;SDS011;15261;50.356;10.340;2022-09-13T01:55:32;9.98;;;7.68;;
27921;SDS011;15261;50.356;10.340;2022-09-13T02:01:00;8.18;;;7.20;;
27921;SDS011;15261;50.356;10.340;2022-09-13T02:03:42;8.38;;;7.40;;
27921;SDS011;15261;50.356;10.340;2022-09-13T02:06:20;8.18;;;7.38;;
27921;SDS011;15261;50.356;10.340;2022-09-13T02:09:09;8.60;;;7.05;;
27921;SDS011;15261;50.356;10.340;2022-09-13T02:11:38;8.63;;;7.75;;
27921;SDS011;15261;50.356;10.340;2022-09-13T02:14:08;7.97;;;7.13;;
27921;SDS011;15261;50.356;10.340;2022-09-13T02:16:55;7.93;;;7.22;;
27921;SDS011;15261;50.356;10.340;2022-09-13T02:19:51;9.50;;;6.93;;
27921;SDS011;15261;50.356;10.340;2022-09-13T02:22:26;8.00;;;7.28;;
27921;SDS011;15261;50.356;10.340;2022-09-13T02:27:47;8.35;;;7.55;;
27921;SDS011;15261;50.356;10.340;2022-09-13T02:30:17;8.82;;;7.70;;
27921;SDS011;15261;50.356;10.340;2022-09-13T02:32:48;8.60;;;7.53;;
27921;SDS011;15261;50.356;10.340;2022-09-13T02:35:18;8.75;;;7.95;;
27921;SDS011;15261;50.356;10.340;2022-09-13T02:37:47;8.63;;;7.72;;
27921;SDS011;15261;50.356;10.340;2022-09-13T02:40:24;9.52;;;7.47;;
27921;SDS011;15261;50.356;10.340;2022-09-13T02:42:54;12.30;;;7.55;;
27921;SDS011;15261;50.356;10.340;2022-09-13T02:45:30;8.70;;;7.57;;
27921;SDS011;15261;50.356;10.340;2022-09-13T02:48:13;9.55;;;7.82;;
27921;SDS011;15261;50.356;10.340;2022-09-13T02:51:06;8.73;;;7.82;;
27921;SDS011;15261;50.356;10.340;2022-09-13T02:56:32;11.30;;;8.02;;
27921;SDS011;15261;50.356;10.340;2022-09-13T02:59:09;9.05;;;8.15;;
27921;SDS011;15261;50.356;10.340;2022-09-13T03:01:43;8.77;;;7.97;;
27921;SDS011;15261;50.356;10.340;2022-09-13T03:04:13;10.52;;;7.78;;
27921;SDS011;15261;50.356;10.340;2022-09-13T03:06:39;8.90;;;8.13;;
27921;SDS011;15261;50.356;10.340;2022-09-13T03:09:05;9.52;;;8.20;;
27921;SDS011;15261;50.356;10.340;2022-09-13T03:11:35;11.20;;;7.72;;
27921;SDS011;15261;50.356;10.340;2022-09-13T03:14:31;8.82;;;8.00;;
27921;SDS011;15261;50.356;10.340;2022-09-13T03:17:53;8.82;;;7.95;;
27921;SDS011;15261;50.356;10.340;2022-09-13T03:20:09;8.20;;;7.50;;
27921;SDS011;15261;50.356;10.340;2022-09-13T03:26:04;9.13;;;8.15;;
27921;SDS011;15261;50.356;10.340;2022-09-13T03:31:47;10.02;;;7.43;;
27921;SDS011;15261;50.356;10.340;2022-09-13T03:34:17;9.93;;;7.72;;
27921;SDS011;15261;50.356;10.340;2022-09-13T03:42:31;10.90;;;8.35;;
27921;SDS011;15261;50.356;10.340;2022-09-13T03:45:03;9.15;;;8.23;;
27921;SDS011;15261;50.356;10.340;2022-09-13T03:47:30;9.18;;;8.07;;
27921;SDS011;15261;50.356;10.340;2022-09-13T03:50:00;10.95;;;8.52;;
27921;SDS011;15261;50.356;10.340;2022-09-13T03:52:27;10.77;;;8.75;;
27921;SDS011;15261;50.356;10.340;2022-09-13T03:54:53;9.65;;;8.73;;
27921;SDS011;15261;50.356;10.340;2022-09-13T03:57:20;9.13;;;8.23;;
27921;SDS011;15261;50.356;10.340;2022-09-13T03:59:47;9.80;;;8.65;;
27921;SDS011;15261;50.356;10.340;2022-09-13T04:05:36;14.43;;;13.00;;
27921;SDS011;15261;50.356;10.340;2022-09-13T04:08:02;22.20;;;19.73;;
27921;SDS011;15261;50.356;10.340;2022-09-13T04:10:29;17.88;;;14.10;;
27921;SDS011;15261;50.356;10.340;2022-09-13T04:12:56;10.07;;;9.18;;
27921;SDS011;15261;50.356;10.340;2022-09-13T04:15:23;10.95;;;9.93;;
27921;SDS011;15261;50.356;10.340;2022-09-13T04:17:49;15.07;;;9.48;;
27921;SDS011;15261;50.356;10.340;2022-09-13T04:20:15;14.43;;;9.20;;
27921;SDS011;15261;50.356;10.340;2022-09-13T04:22:40;10.00;;;9.00;;
27921;SDS011;15261;50.356;10.340;2022-09-13T04:25:06;10.27;;;8.38;;
27921;SDS011;15261;50.356;10.340;2022-09-13T04:27:32;13.63;;;8.82;;
27921;SDS011;15261;50.356;10.340;2022-09-13T04:29:59;10.57;;;8.35;;
27921;SDS011;15261;50.356;10.340;2022-09-13T04:32:26;12.43;;;8.25;;
27921;SDS011;15261;50.356;10.340;2022-09-13T04:34:52;8.60;;;7.85;;
27921;SDS011;15261;50.356;10.340;2022-09-13T04:37:18;9.73;;;8.35;;
27921;SDS011;15261;50.356;10.340;2022-09-13T04:40:00;18.83;;;7.82;;
27921;SDS011;15261;50.356;10.340;2022-09-13T04:42:26;12.85;;;7.15;;
27921;SDS011;15261;50.356;10.340;2022-09-13T04:44:51;18.95;;;7.60;;
27921;SDS011;15261;50.356;10.340;2022-09-13T04:47:17;14.50;;;7.65;;
27921;SDS011;15261;50.356;10.340;2022-09-13T04:49:43;10.18;;;7.93;;
27921;SDS011;15261;50.356;10.340;2022-09-13T04:52:08;11.48;;;7.85;;
27921;SDS011;15261;50.356;10.340;2022-09-13T04:54:34;11.57;;;7.85;;
27921;SDS011;15261;50.356;10.340;2022-09-13T04:56:59;21.77;;;8.00;;
27921;SDS011;15261;50.356;10.340;2022-09-13T04:59:25;16.27;;;9.13;;
27921;SDS011;15261;50.356;10.340;2022-09-13T05:01:50;15.68;;;8.63;;
27921;SDS011;15261;50.356;10.340;2022-09-13T05:04:16;19.70;;;7.97;;
27921;SDS011;15261;50.356;10.340;2022-09-13T05:12:11;15.07;;;8.60;;
27921;SDS011;15261;50.356;10.340;2022-09-13T05:14:38;14.95;;;8.07;;
27921;SDS011;15261;50.356;10.340;2022-09-13T05:17:04;11.10;;;8.32;;
27921;SDS011;15261;50.356;10.340;2022-09-13T05:19:29;10.05;;;8.20;;
27921;SDS011;15261;50.356;10.340;2022-09-13T05:21:55;30.20;;;9.68;;
27921;SDS011;15261;50.356;10.340;2022-09-13T05:24:20;54.42;;;10.82;;
27921;SDS011;15261;50.356;10.340;2022-09-13T05:26:46;19.73;;;9.77;;
27921;SDS011;15261;50.356;10.340;2022-09-13T05:29:12;16.83;;;8.45;;
27921;SDS011;15261;50.356;10.340;2022-09-13T05:31:38;18.80;;;9.15;;
27921;SDS011;15261;50.356;10.340;2022-09-13T05:34:06;14.75;;;8.80;;
27921;SDS011;15261;50.356;10.340;2022-09-13T05:36:34;19.60;;;8.85;;
27921;SDS011;15261;50.356;10.340;2022-09-13T05:39:00;11.88;;;8.18;;
27921;SDS011;15261;50.356;10.340;2022-09-13T05:41:26;12.57;;;8.98;;
27921;SDS011;15261;50.356;10.340;2022-09-13T05:43:52;14.10;;;7.90;;
27921;SDS011;15261;50.356;10.340;2022-09-13T05:46:18;12.25;;;8.10;;
27921;SDS011;15261;50.356;10.340;2022-09-13T05:48:45;18.70;;;8.75;;
27921;SDS011;15261;50.356;10.340;2022-09-13T05:51:21;11.73;;;7.95;;
27921;SDS011;15261;50.356;10.340;2022-09-13T05:53:47;15.05;;;8.45;;
27921;SDS011;15261;50.356;10.340;2022-09-13T05:56:23;18.98;;;9.07;;
27921;SDS011;15261;50.356;10.340;2022-09-13T05:58:51;12.18;;;8.43;;
27921;SDS011;15261;50.356;10.340;2022-09-13T06:01:22;12.00;;;7.95;;
27921;SDS011;15261;50.356;10.340;2022-09-13T06:03:50;10.63;;;7.32;;
27921;SDS011;15261;50.356;10.340;2022-09-13T06:06:17;10.25;;;7.82;;
27921;SDS011;15261;50.356;10.340;2022-09-13T06:08:44;13.25;;;9.10;;
27921;SDS011;15261;50.356;10.340;2022-09-13T06:11:11;11.30;;;8.30;;
27921;SDS011;15261;50.356;10.340;2022-09-13T06:13:38;15.38;;;8.00;;
27921;SDS011;15261;50.356;10.340;2022-09-13T06:16:05;9.05;;;8.15;;
27921;SDS011;15261;50.356;10.340;2022-09-13T06:18:33;9.40;;;8.48;;
27921;SDS011;15261;50.356;10.340;2022-09-13T06:21:00;8.60;;;7.57;;
27921;SDS011;15261;50.356;10.340;2022-09-13T06:23:42;9.18;;;8.23;;
27921;SDS011;15261;50.356;10.340;2022-09-13T06:26:09;10.88;;;8.05;;
27921;SDS011;15261;50.356;10.340;2022-09-13T06:28:37;10.00;;;8.68;;
27921;SDS011;15261;50.356;10.340;2022-09-13T06:31:07;10.23;;;8.25;;
27921;SDS011;15261;50.356;10.340;2022-09-13T06:36:56;11.13;;;8.90;;
27921;SDS011;15261;50.356;10.340;2022-09-13T06:39:21;9.43;;;8.45;;
27921;SDS011;15261;50.356;10.340;2022-09-13T06:41:47;11.77;;;8.90;;
27921;SDS011;15261;50.356;10.340;2022-09-13T06:44:12;10.05;;;8.60;;
27921;SDS011;15261;50.356;10.340;2022-09-13T06:46:38;10.35;;;9.27;;
27921;SDS011;15261;50.356;10.340;2022-09-13T06:49:05;12.30;;;8.55;;
27921;SDS011;15261;50.356;10.340;2022-09-13T06:51:32;10.00;;;8.57;;
27921;SDS011;15261;50.356;10.340;2022-09-13T06:53:59;11.35;;;8.20;;
27921;SDS011;15261;50.356;10.340;2022-09-13T06:56:32;10.15;;;8.27;;
27921;SDS011;15261;50.356;10.340;2022-09-13T06:59:00;9.52;;;8.65;;
27921;SDS011;15261;50.356;10.340;2022-09-13T07:01:30;9.73;;;8.70;;
27921;SDS011;15261;50.356;10.340;2022-09-13T07:03:58;16.45;;;8.95;;
27921;SDS011;15261;50.356;10.340;2022-09-13T07:06:29;11.00;;;9.07;;
27921;SDS011;15261;50.356;10.340;2022-09-13T07:09:00;11.40;;;8.73;;
27921;SDS011;15261;50.356;10.340;2022-09-13T07:11:29;10.15;;;9.15;;
27921;SDS011;15261;50.356;10.340;2022-09-13T07:13:56;12.02;;;9.38;;
27921;SDS011;15261;50.356;10.340;2022-09-13T07:16:24;10.15;;;8.98;;
27921;SDS011;15261;50.356;10.340;2022-09-13T07:21:54;11.07;;;8.80;;
27921;SDS011;15261;50.356;10.340;2022-09-13T07:24:27;10.40;;;8.73;;
27921;SDS011;15261;50.356;10.340;2022-09-13T07:26:53;9.52;;;8.63;;
27921;SDS011;15261;50.356;10.340;2022-09-13T07:29:32;8.88;;;7.97;;
27921;SDS011;15261;50.356;10.340;2022-09-13T07:31:57;9.80;;;8.68;;
27921;SDS011;15261;50.356;10.340;2022-09-13T07:34:24;9.60;;;8.73;;
27921;SDS011;15261;50.356;10.340;2022-09-13T07:36:51;9.75;;;8.52;;
27921;SDS011;15261;50.356;10.340;2022-09-13T07:39:17;9.27;;;8.48;;
27921;SDS011;15261;50.356;10.340;2022-09-13T07:41:43;10.45;;;9.07;;
27921;SDS011;15261;50.356;10.340;2022-09-13T07:44:10;13.38;;;7.93;;
27921;SDS011;15261;50.356;10.340;2022-09-13T07:46:37;11.05;;;8.45;;
27921;SDS011;15261;50.356;10.340;2022-09-13T07:49:07;10.48;;;9.25;;
27921;SDS011;15261;50.356;10.340;2022-09-13T07:51:36;10.65;;;9.40;;
27921;SDS011;15261;50.356;10.340;2022-09-13T07:54:04;10.30;;;9.30;;
27921;SDS011;15261;50.356;10.340;2022-09-13T07:56:35;11.35;;;10.18;;
27921;SDS011;15261;50.356;10.340;2022-09-13T07:59:03;13.20;;;10.18;;
27921;SDS011;15261;50.356;10.340;2022-09-13T08:01:35;12.95;;;9.95;;
27921;SDS011;15261;50.356;10.340;2022-09-13T08:04:03;10.70;;;9.32;;
27921;SDS011;15261;50.356;10.340;2022-09-13T08:06:31;12.30;;;10.30;;
27921;SDS011;15261;50.356;10.340;2022-09-13T08:08:58;14.40;;;9.82;;
27921;SDS011;15261;50.356;10.340;2022-09-13T08:11:25;16.02;;;9.68;;
27921;SDS011;15261;50.356;10.340;2022-09-13T08:13:56;10.30;;;9.27;;
27921;SDS011;15261;50.356;10.340;2022-09-13T08:16:23;11.25;;;10.10;;
27921;SDS011;15261;50.356;10.340;2022-09-13T08:18:50;12.15;;;10.63;;
27921;SDS011;15261;50.356;10.340;2022-09-13T08:21:18;10.65;;;9.65;;
27921;SDS011;15261;50.356;10.340;2022-09-13T08:23:44;11.00;;;9.77;;
27921;SDS011;15261;50.356;10.340;2022-09-13T08:26:10;11.23;;;10.13;;
27921;SDS011;15261;50.356;10.340;2022-09-13T08:28:37;15.75;;;10.18;;
27921;SDS011;15261;50.356;10.340;2022-09-13T08:31:11;10.95;;;9.85;;
27921;SDS011;15261;50.356;10.340;2022-09-13T08:33:41;11.23;;;9.73;;
27921;SDS011;15261;50.356;10.340;2022-09-13T08:36:08;10.63;;;9.55;;
27921;SDS011;15261;50.356;10.340;2022-09-13T08:38:34;11.82;;;9.68;;
27921;SDS011;15261;50.356;10.340;2022-09-13T08:41:04;12.88;;;10.07;;
27921;SDS011;15261;50.356;10.340;2022-09-13T08:43:57;10.05;;;9.15;;
27921;SDS011;15261;50.356;10.340;2022-09-13T08:46:40;10.77;;;9.75;;
27921;SDS011;15261;50.356;10.340;2022-09-13T08:49:29;11.00;;;9.90;;
27921;SDS011;15261;50.356;10.340;2022-09-13T08:52:00;15.85;;;10.15;;
27921;SDS011;15261;50.356;10.340;2022-09-13T08:54:46;11.23;;;10.13;;
27921;SDS011;15261;50.356;10.340;2022-09-13T08:57:19;11.07;;;10.00;;
27921;SDS011;15261;50.356;10.340;2022-09-13T09:02:31;13.55;;;11.77;;
27921;SDS011;15261;50.356;10.340;2022-09-13T09:05:24;12.60;;;10.77;;
27921;SDS011;15261;50.356;10.340;2022-09-13T09:07:57;13.02;;;11.68;;
27921;SDS011;15261;50.356;10.340;2022-09-13T09:10:28;12.40;;;10.18;;
27921;SDS011;15261;50.356;10.340;2022-09-13T09:12:58;11.50;;;10.40;;
27921;SDS011;15261;50.356;10.340;2022-09-13T09:15:30;10.75;;;9.75;;
27921;SDS011;15261;50.356;10.340;2022-09-13T09:18:05;10.32;;;9.32;;
27921;SDS011;15261;50.356;10.340;2022-09-13T09:25:50;11.00;;;10.05;;
27921;SDS011;15261;50.356;10.340;2022-09-13T09:28:21;12.38;;;11.10;;
27921;SDS011;15261;50.356;10.340;2022-09-13T09:31:08;11.57;;;10.30;;
27921;SDS011;15261;50.356;10.340;2022-09-13T09:39:28;12.68;;;10.48;;
27921;SDS011;15261;50.356;10.340;2022-09-13T09:41:57;11.02;;;9.70;;
27921;SDS011;15261;50.356;10.340;2022-09-13T09:44:25;10.90;;;9.80;;
27921;SDS011;15261;50.356;10.340;2022-09-13T09:46:58;16.30;;;11.70;;
27921;SDS011;15261;50.356;10.340;2022-09-13T09:58:06;11.45;;;9.88;;
27921;SDS011;15261;50.356;10.340;2022-09-13T10:03:28;11.20;;;10.05;;
27921;SDS011;15261;50.356;10.340;2022-09-13T10:06:05;17.00;;;10.32;;
27921;SDS011;15261;50.356;10.340;2022-09-13T10:08:33;11.82;;;9.70;;
27921;SDS011;15261;50.356;10.340;2022-09-13T10:11:01;10.63;;;8.93;;
27921;SDS011;15261;50.356;10.340;2022-09-13T10:13:28;12.13;;;9.63;;
27921;SDS011;15261;50.356;10.340;2022-09-13T10:15:56;9.32;;;8.52;;
27921;SDS011;15261;50.356;10.340;2022-09-13T10:18:25;10.98;;;8.68;;
27921;SDS011;15261;50.356;10.340;2022-09-13T10:21:01;10.10;;;9.20;;
27921;SDS011;15261;50.356;10.340;2022-09-13T10:23:43;13.85;;;9.60;;
27921;SDS011;15261;50.356;10.340;2022-09-13T10:26:12;10.73;;;9.32;;
27921;SDS011;15261;50.356;10.340;2022-09-13T10:28:57;13.15;;;9.30;;
27921;SDS011;15261;50.356;10.340;2022-09-13T10:31:30;10.55;;;9.55;;
27921;SDS011;15261;50.356;10.340;2022-09-13T10:34:00;10.52;;;9.52;;
27921;SDS011;15261;50.356;10.340;2022-09-13T10:36:40;10.65;;;9.60;;
27921;SDS011;15261;50.356;10.340;2022-09-13T10:39:14;11.52;;;9.18;;
27921;SDS011;15261;50.356;10.340;2022-09-13T10:41:47;12.90;;;9.80;;
27921;SDS011;15261;50.356;10.340;2022-09-13T10:44:43;12.80;;;10.00;;
27921;SDS011;15261;50.356;10.340;2022-09-13T10:47:19;11.02;;;9.93;;
27921;SDS011;15261;50.356;10.340;2022-09-13T10:49:55;12.60;;;9.48;;
27921;SDS011;15261;50.356;10.340;2022-09-13T10:52:43;10.80;;;9.73;;
27921;SDS011;15261;50.356;10.340;2022-09-13T10:55:22;9.93;;;8.88;;
27921;SDS011;15261;50.356;10.340;2022-09-13T11:00:33;10.57;;;8.98;;
27921;SDS011;15261;50.356;10.340;2022-09-13T11:05:46;9.13;;;8.23;;
27921;SDS011;15261;50.356;10.340;2022-09-13T11:11:39;9.50;;;8.73;;
27921;SDS011;15261;50.356;10.340;2022-09-13T11:22:31;8.38;;;7.72;;
27921;SDS011;15261;50.356;10.340;2022-09-13T11:27:54;9.35;;;8.32;;
27921;SDS011;15261;50.356;10.340;2022-09-13T11:33:27;10.10;;;8.13;;
27921;SDS011;15261;50.356;10.340;2022-09-13T11:47:18;10.68;;;7.47;;
27921;SDS011;15261;50.356;10.340;2022-09-13T11:50:16;8.85;;;7.13;;
27921;SDS011;15261;50.356;10.340;2022-09-13T11:56:13;8.32;;;7.53;;
27921;SDS011;15261;50.356;10.340;2022-09-13T11:58:55;9.23;;;7.25;;
27921;SDS011;15261;50.356;10.340;2022-09-13T12:01:39;7.78;;;7.07;;
27921;SDS011;15261;50.356;10.340;2022-09-13T12:04:11;7.93;;;7.22;;
27921;SDS011;15261;50.356;10.340;2022-09-13T12:06:45;7.88;;;6.85;;
27921;SDS011;15261;50.356;10.340;2022-09-13T12:09:23;9.50;;;7.57;;
27921;SDS011;15261;50.356;10.340;2022-09-13T12:12:04;8.40;;;7.07;;
27921;SDS011;15261;50.356;10.340;2022-09-13T12:14:42;8.00;;;7.30;;
27921;SDS011;15261;50.356;10.340;2022-09-13T12:17:29;7.82;;;6.75;;
27921;SDS011;15261;50.356;10.340;2022-09-13T12:20:05;7.40;;;6.70;;
27921;SDS011;15261;50.356;10.340;2022-09-13T12:22:44;7.60;;;6.00;;
27921;SDS011;15261;50.356;10.340;2022-09-13T12:25:16;6.80;;;5.78;;
27921;SDS011;15261;50.356;10.340;2022-09-13T12:27:50;6.00;;;5.50;;
27921;SDS011;15261;50.356;10.340;2022-09-13T12:30:30;12.93;;;5.57;;
27921;SDS011;15261;50.356;10.340;2022-09-13T12:33:04;6.60;;;4.05;;
27921;SDS011;15261;50.356;10.340;2022-09-13T12:35:32;7.15;;;3.80;;
27921;SDS011;15261;50.356;10.340;2022-09-13T12:52:20;4.80;;;2.85;;
27921;SDS011;15261;50.356;10.340;2022-09-13T12:55:15;7.47;;;3.00;;
27921;SDS011;15261;50.356;10.340;2022-09-13T12:57:56;4.18;;;2.75;;
27921;SDS011;15261;50.356;10.340;2022-09-13T13:00:29;3.28;;;2.53;;
27921;SDS011;15261;50.356;10.340;2022-09-13T13:03:12;5.82;;;2.65;;
27921;SDS011;15261;50.356;10.340;2022-09-13T13:05:43;4.93;;;2.60;;
27921;SDS011;15261;50.356;10.340;2022-09-13T13:10:45;3.28;;;2.67;;
27921;SDS011;15261;50.356;10.340;2022-09-13T13:13:31;4.70;;;2.65;;
27921;SDS011;15261;50.356;10.340;2022-09-13T13:18:54;2.85;;;2.35;;
27921;SDS011;15261;50.356;10.340;2022-09-13T13:21:40;3.88;;;2.30;;
27921;SDS011;15261;50.356;10.340;2022-09-13T13:24:41;7.53;;;2.90;;
27921;SDS011;15261;50.356;10.340;2022-09-13T13:26:58;3.60;;;3.30;;
27921;SDS011;15261;50.356;10.340;2022-09-13T13:29:30;5.95;;;3.63;;
